sensor_id;sensor_type;location;lat;lon;timestamp;temperature;humidity
30186;DHT22;31152;49.190;8.122;2022-09-21T00:01:20;9.90;99.90
30186;DHT22;31152;49.190;8.122;2022-09-21T00:03:55;9.90;99.90
30186;DHT22;31152;49.190;8.122;2022-09-21T00:06:24;9.80;99.90
30186;DHT22;31152;49.190;8.122;2022-09-21T00:08:51;9.80;99.90
30186;DHT22;31152;49.190;8.122;2022-09-21T00:11:22;9.80;99.90
30186;DHT22;31152;49.190;8.122;2022-09-21T00:13:55;9.70;99.90
30186;DHT22;31152;49.190;8.122;2022-09-21T00:16:24;9.70;99.90
30186;DHT22;31152;49.190;8.122;2022-09-21T00:18:51;9.70;99.90
30186;DHT22;31152;49.190;8.122;2022-09-21T00:21:18;9.60;99.90
30186;DHT22;31152;49.190;8.122;2022-09-21T00:23:44;9.60;99.90
30186;DHT22;31152;49.190;8.122;2022-09-21T00:26:14;9.50;99.90
30186;DHT22;31152;49.190;8.122;2022-09-21T00:28:44;9.50;99.90
30186;DHT22;31152;49.190;8.122;2022-09-21T00:31:13;9.50;99.90
30186;DHT22;31152;49.190;8.122;2022-09-21T00:33:41;9.40;99.90
30186;DHT22;31152;49.190;8.122;2022-09-21T00:36:12;9.40;99.90
30186;DHT22;31152;49.190;8.122;2022-09-21T00:38:42;9.40;99.90
30186;DHT22;31152;49.190;8.122;2022-09-21T00:41:11;9.30;99.90
30186;DHT22;31152;49.190;8.122;2022-09-21T00:44:09;9.30;99.90
30186;DHT22;31152;49.190;8.122;2022-09-21T00:46:33;9.30;99.90
30186;DHT22;31152;49.190;8.122;2022-09-21T00:49:01;9.20;99.90
30186;DHT22;31152;49.190;8.122;2022-09-21T00:51:30;9.20;99.90
30186;DHT22;31152;49.190;8.122;2022-09-21T00:54:02;9.10;99.90
30186;DHT22;31152;49.190;8.122;2022-09-21T00:56:29;9.10;99.90
30186;DHT22;31152;49.190;8.122;2022-09-21T00:58:56;9.10;99.90
30186;DHT22;31152;49.190;8.122;2022-09-21T01:01:23;9.10;99.90
30186;DHT22;31152;49.190;8.122;2022-09-21T01:03:52;9.00;99.90
30186;DHT22;31152;49.190;8.122;2022-09-21T01:06:22;9.00;99.90
30186;DHT22;31152;49.190;8.122;2022-09-21T01:08:54;9.00;99.90
30186;DHT22;31152;49.190;8.122;2022-09-21T01:14:30;8.90;99.90
30186;DHT22;31152;49.190;8.122;2022-09-21T01:17:21;8.90;99.90
30186;DHT22;31152;49.190;8.122;2022-09-21T01:31:20;8.80;99.90
30186;DHT22;31152;49.190;8.122;2022-09-21T01:33:56;8.80;99.90
30186;DHT22;31152;49.190;8.122;2022-09-21T01:36:27;8.80;99.90
30186;DHT22;31152;49.190;8.122;2022-09-21T01:38:59;8.70;99.90
30186;DHT22;31152;49.190;8.122;2022-09-21T01:41:28;8.70;99.90
30186;DHT22;31152;49.190;8.122;2022-09-21T01:43:59;8.70;99.90
30186;DHT22;31152;49.190;8.122;2022-09-21T01:46:31;8.70;99.90
30186;DHT22;31152;49.190;8.122;2022-09-21T01:49:03;8.70;99.90
30186;DHT22;31152;49.190;8.122;2022-09-21T01:51:32;8.70;99.90
30186;DHT22;31152;49.190;8.122;2022-09-21T01:54:23;8.70;99.90
30186;DHT22;31152;49.190;8.122;2022-09-21T01:56:56;8.70;99.90
30186;DHT22;31152;49.190;8.122;2022-09-21T01:59:31;8.70;99.90
30186;DHT22;31152;49.190;8.122;2022-09-21T02:02:05;8.70;99.90
30186;DHT22;31152;49.190;8.122;2022-09-21T02:04:36;8.70;99.90
30186;DHT22;31152;49.190;8.122;2022-09-21T02:07:05;8.70;99.90
30186;DHT22;31152;49.190;8.122;2022-09-21T02:09:34;8.70;99.90
30186;DHT22;31152;49.190;8.122;2022-09-21T02:12:03;8.70;99.90
30186;DHT22;31152;49.190;8.122;2022-09-21T02:14:33;8.70;99.90
30186;DHT22;31152;49.190;8.122;2022-09-21T02:19:58;8.60;99.90
30186;DHT22;31152;49.190;8.122;2022-09-21T02:25:48;8.60;99.90
30186;DHT22;31152;49.190;8.122;2022-09-21T02:31:37;8.50;99.90
30186;DHT22;31152;49.190;8.122;2022-09-21T02:34:15;8.50;99.90
30186;DHT22;31152;49.190;8.122;2022-09-21T02:37:22;8.50;99.90
30186;DHT22;31152;49.190;8.122;2022-09-21T02:42:32;8.50;99.90
30186;DHT22;31152;49.190;8.122;2022-09-21T02:50:14;8.40;99.90
30186;DHT22;31152;49.190;8.122;2022-09-21T02:52:45;8.40;99.90
30186;DHT22;31152;49.190;8.122;2022-09-21T02:55:12;8.40;99.90
30186;DHT22;31152;49.190;8.122;2022-09-21T02:57:40;8.40;99.90
30186;DHT22;31152;49.190;8.122;2022-09-21T03:00:07;8.30;99.90
30186;DHT22;31152;49.190;8.122;2022-09-21T03:02:39;8.30;99.90
30186;DHT22;31152;49.190;8.122;2022-09-21T03:05:06;8.30;99.90
30186;DHT22;31152;49.190;8.122;2022-09-21T03:07:36;8.20;99.90
30186;DHT22;31152;49.190;8.122;2022-09-21T03:10:03;8.20;99.90
30186;DHT22;31152;49.190;8.122;2022-09-21T03:12:32;8.10;99.90
30186;DHT22;31152;49.190;8.122;2022-09-21T03:15:01;8.10;99.90
30186;DHT22;31152;49.190;8.122;2022-09-21T03:17:27;8.10;99.90
30186;DHT22;31152;49.190;8.122;2022-09-21T03:19:56;8.00;99.90
30186;DHT22;31152;49.190;8.122;2022-09-21T03:22:23;8.00;99.90
30186;DHT22;31152;49.190;8.122;2022-09-21T03:24:50;8.00;99.90
30186;DHT22;31152;49.190;8.122;2022-09-21T03:27:19;8.00;99.90
30186;DHT22;31152;49.190;8.122;2022-09-21T03:29:46;7.90;99.90
30186;DHT22;31152;49.190;8.122;2022-09-21T03:32:13;7.90;99.90
30186;DHT22;31152;49.190;8.122;2022-09-21T03:34:40;7.90;99.90
30186;DHT22;31152;49.190;8.122;2022-09-21T03:37:08;7.90;99.90
30186;DHT22;31152;49.190;8.122;2022-09-21T03:39:35;7.90;99.90
30186;DHT22;31152;49.190;8.122;2022-09-21T03:42:02;7.90;99.90
30186;DHT22;31152;49.190;8.122;2022-09-21T03:44:31;7.90;99.90
30186;DHT22;31152;49.190;8.122;2022-09-21T03:46:58;7.90;99.90
30186;DHT22;31152;49.190;8.122;2022-09-21T03:49:25;7.90;99.90
30186;DHT22;31152;49.190;8.122;2022-09-21T03:51:52;7.80;99.90
30186;DHT22;31152;49.190;8.122;2022-09-21T03:54:18;7.90;99.90
30186;DHT22;31152;49.190;8.122;2022-09-21T03:56:45;7.80;99.90
30186;DHT22;31152;49.190;8.122;2022-09-21T03:59:12;7.80;99.90
30186;DHT22;31152;49.190;8.122;2022-09-21T04:01:40;7.80;99.90
30186;DHT22;31152;49.190;8.122;2022-09-21T04:04:07;7.80;99.90
30186;DHT22;31152;49.190;8.122;2022-09-21T04:06:34;7.80;99.90
30186;DHT22;31152;49.190;8.122;2022-09-21T04:09:01;7.80;99.90
30186;DHT22;31152;49.190;8.122;2022-09-21T04:11:28;7.80;99.90
30186;DHT22;31152;49.190;8.122;2022-09-21T04:13:55;7.80;99.90
30186;DHT22;31152;49.190;8.122;2022-09-21T04:16:26;7.80;99.90
30186;DHT22;31152;49.190;8.122;2022-09-21T04:18:53;7.80;99.90
30186;DHT22;31152;49.190;8.122;2022-09-21T04:21:20;7.70;99.90
30186;DHT22;31152;49.190;8.122;2022-09-21T04:23:52;7.80;99.90
30186;DHT22;31152;49.190;8.122;2022-09-21T04:26:22;7.70;99.90
30186;DHT22;31152;49.190;8.122;2022-09-21T04:28:50;7.70;99.90
30186;DHT22;31152;49.190;8.122;2022-09-21T04:31:17;7.70;99.90
30186;DHT22;31152;49.190;8.122;2022-09-21T04:33:48;7.60;99.90
30186;DHT22;31152;49.190;8.122;2022-09-21T04:36:16;7.60;99.90
30186;DHT22;31152;49.190;8.122;2022-09-21T04:38:43;7.70;99.90
30186;DHT22;31152;49.190;8.122;2022-09-21T04:41:10;7.70;99.90
30186;DHT22;31152;49.190;8.122;2022-09-21T04:43:37;7.70;99.90
30186;DHT22;31152;49.190;8.122;2022-09-21T04:46:09;7.70;99.90
30186;DHT22;31152;49.190;8.122;2022-09-21T04:48:36;7.70;99.90
30186;DHT22;31152;49.190;8.122;2022-09-21T04:51:02;7.60;99.90
30186;DHT22;31152;49.190;8.122;2022-09-21T04:53:29;7.60;99.90
30186;DHT22;31152;49.190;8.122;2022-09-21T04:55:56;7.50;99.90
30186;DHT22;31152;49.190;8.122;2022-09-21T04:58:23;7.50;99.90
30186;DHT22;31152;49.190;8.122;2022-09-21T05:00:52;7.50;99.90
30186;DHT22;31152;49.190;8.122;2022-09-21T05:03:21;7.50;99.90
30186;DHT22;31152;49.190;8.122;2022-09-21T05:05:49;7.50;99.90
30186;DHT22;31152;49.190;8.122;2022-09-21T05:08:16;7.50;99.90
30186;DHT22;31152;49.190;8.122;2022-09-21T05:10:43;7.50;99.90
30186;DHT22;31152;49.190;8.122;2022-09-21T05:13:10;7.50;99.90
30186;DHT22;31152;49.190;8.122;2022-09-21T05:15:39;7.50;99.90
30186;DHT22;31152;49.190;8.122;2022-09-21T05:18:06;7.50;99.90
30186;DHT22;31152;49.190;8.122;2022-09-21T05:20:32;7.60;99.90
30186;DHT22;31152;49.190;8.122;2022-09-21T05:23:02;7.60;99.90
30186;DHT22;31152;49.190;8.122;2022-09-21T05:25:28;7.60;99.90
30186;DHT22;31152;49.190;8.122;2022-09-21T05:27:55;7.50;99.90
30186;DHT22;31152;49.190;8.122;2022-09-21T05:30:22;7.60;99.90
30186;DHT22;31152;49.190;8.122;2022-09-21T05:33:00;7.60;99.90
30186;DHT22;31152;49.190;8.122;2022-09-21T05:35:56;7.50;99.90
30186;DHT22;31152;49.190;8.122;2022-09-21T05:38:24;7.50;99.90
30186;DHT22;31152;49.190;8.122;2022-09-21T05:40:51;7.50;99.90
30186;DHT22;31152;49.190;8.122;2022-09-21T05:43:21;7.60;99.90
30186;DHT22;31152;49.190;8.122;2022-09-21T05:45:55;7.60;99.90
30186;DHT22;31152;49.190;8.122;2022-09-21T05:48:35;7.60;99.90
30186;DHT22;31152;49.190;8.122;2022-09-21T05:56:51;7.70;99.90
30186;DHT22;31152;49.190;8.122;2022-09-21T06:05:16;7.80;99.90
30186;DHT22;31152;49.190;8.122;2022-09-21T06:07:43;7.80;99.90
30186;DHT22;31152;49.190;8.122;2022-09-21T06:10:13;7.80;99.90
30186;DHT22;31152;49.190;8.122;2022-09-21T06:12:43;7.90;99.90
30186;DHT22;31152;49.190;8.122;2022-09-21T06:15:12;7.90;99.90
30186;DHT22;31152;49.190;8.122;2022-09-21T06:17:39;8.00;99.90
30186;DHT22;31152;49.190;8.122;2022-09-21T06:20:06;8.00;99.90
30186;DHT22;31152;49.190;8.122;2022-09-21T06:22:34;8.10;99.90
30186;DHT22;31152;49.190;8.122;2022-09-21T06:25:03;8.20;99.90
30186;DHT22;31152;49.190;8.122;2022-09-21T06:27:30;8.30;99.90
30186;DHT22;31152;49.190;8.122;2022-09-21T06:29:57;8.30;99.90
30186;DHT22;31152;49.190;8.122;2022-09-21T06:32:23;8.40;99.90
30186;DHT22;31152;49.190;8.122;2022-09-21T06:34:50;8.50;99.90
30186;DHT22;31152;49.190;8.122;2022-09-21T06:37:17;8.60;99.90
30186;DHT22;31152;49.190;8.122;2022-09-21T06:39:44;8.70;99.90
30186;DHT22;31152;49.190;8.122;2022-09-21T06:42:11;8.80;99.90
30186;DHT22;31152;49.190;8.122;2022-09-21T06:44:37;8.90;99.90
30186;DHT22;31152;49.190;8.122;2022-09-21T06:47:04;9.00;99.90
30186;DHT22;31152;49.190;8.122;2022-09-21T06:49:31;9.10;99.90
30186;DHT22;31152;49.190;8.122;2022-09-21T06:52:00;9.30;99.90
30186;DHT22;31152;49.190;8.122;2022-09-21T06:54:29;9.60;99.90
30186;DHT22;31152;49.190;8.122;2022-09-21T06:56:56;9.70;99.90
30186;DHT22;31152;49.190;8.122;2022-09-21T06:59:25;9.90;99.90
30186;DHT22;31152;49.190;8.122;2022-09-21T07:01:52;10.20;99.90
30186;DHT22;31152;49.190;8.122;2022-09-21T07:04:21;10.30;99.90
30186;DHT22;31152;49.190;8.122;2022-09-21T07:06:53;10.50;99.90
30186;DHT22;31152;49.190;8.122;2022-09-21T07:09:19;10.70;99.90
30186;DHT22;31152;49.190;8.122;2022-09-21T07:12:06;10.90;99.90
30186;DHT22;31152;49.190;8.122;2022-09-21T07:14:33;11.10;99.90
30186;DHT22;31152;49.190;8.122;2022-09-21T07:17:00;11.20;99.90
30186;DHT22;31152;49.190;8.122;2022-09-21T07:19:27;11.40;99.90
30186;DHT22;31152;49.190;8.122;2022-09-21T07:21:54;11.50;99.90
30186;DHT22;31152;49.190;8.122;2022-09-21T07:24:23;11.60;99.90
30186;DHT22;31152;49.190;8.122;2022-09-21T07:26:50;11.80;99.90
30186;DHT22;31152;49.190;8.122;2022-09-21T07:29:18;11.90;99.90
30186;DHT22;31152;49.190;8.122;2022-09-21T07:31:45;12.10;99.90
30186;DHT22;31152;49.190;8.122;2022-09-21T07:34:11;12.20;99.90
30186;DHT22;31152;49.190;8.122;2022-09-21T07:36:39;12.30;99.90
30186;DHT22;31152;49.190;8.122;2022-09-21T07:39:08;12.40;99.90
30186;DHT22;31152;49.190;8.122;2022-09-21T07:41:35;12.60;99.90
30186;DHT22;31152;49.190;8.122;2022-09-21T07:44:02;12.60;99.90
30186;DHT22;31152;49.190;8.122;2022-09-21T07:46:29;12.60;99.90
30186;DHT22;31152;49.190;8.122;2022-09-21T07:48:56;12.70;99.90
30186;DHT22;31152;49.190;8.122;2022-09-21T07:51:23;12.80;99.90
30186;DHT22;31152;49.190;8.122;2022-09-21T07:53:54;13.00;99.90
30186;DHT22;31152;49.190;8.122;2022-09-21T07:56:27;13.20;99.90
30186;DHT22;31152;49.190;8.122;2022-09-21T07:58:53;13.30;99.90
30186;DHT22;31152;49.190;8.122;2022-09-21T08:01:40;13.50;99.90
30186;DHT22;31152;49.190;8.122;2022-09-21T08:04:08;13.60;99.90
30186;DHT22;31152;49.190;8.122;2022-09-21T08:06:37;13.70;99.90
30186;DHT22;31152;49.190;8.122;2022-09-21T08:09:06;13.80;99.90
30186;DHT22;31152;49.190;8.122;2022-09-21T08:11:34;14.00;99.90
30186;DHT22;31152;49.190;8.122;2022-09-21T08:14:02;14.20;99.90
30186;DHT22;31152;49.190;8.122;2022-09-21T08:16:30;14.20;99.90
30186;DHT22;31152;49.190;8.122;2022-09-21T08:19:01;14.30;99.90
30186;DHT22;31152;49.190;8.122;2022-09-21T08:21:30;14.40;99.90
30186;DHT22;31152;49.190;8.122;2022-09-21T08:23:56;14.50;99.90
30186;DHT22;31152;49.190;8.122;2022-09-21T08:26:23;14.80;99.90
30186;DHT22;31152;49.190;8.122;2022-09-21T08:28:51;14.90;99.90
30186;DHT22;31152;49.190;8.122;2022-09-21T08:31:21;15.00;99.90
30186;DHT22;31152;49.190;8.122;2022-09-21T08:33:50;15.20;99.90
30186;DHT22;31152;49.190;8.122;2022-09-21T08:36:19;15.30;99.90
30186;DHT22;31152;49.190;8.122;2022-09-21T08:38:46;15.40;99.90
30186;DHT22;31152;49.190;8.122;2022-09-21T08:44:02;15.70;99.90
30186;DHT22;31152;49.190;8.122;2022-09-21T08:46:33;15.90;99.90
30186;DHT22;31152;49.190;8.122;2022-09-21T08:49:16;16.10;99.90
30186;DHT22;31152;49.190;8.122;2022-09-21T08:52:06;16.20;99.90
30186;DHT22;31152;49.190;8.122;2022-09-21T08:57:17;16.50;99.90
30186;DHT22;31152;49.190;8.122;2022-09-21T08:59:46;16.70;99.90
30186;DHT22;31152;49.190;8.122;2022-09-21T09:05:03;17.10;99.90
30186;DHT22;31152;49.190;8.122;2022-09-21T09:11:05;17.30;99.90
30186;DHT22;31152;49.190;8.122;2022-09-21T09:16:35;17.20;99.90
30186;DHT22;31152;49.190;8.122;2022-09-21T09:19:23;17.30;99.90
30186;DHT22;31152;49.190;8.122;2022-09-21T09:21:55;17.50;99.90
30186;DHT22;31152;49.190;8.122;2022-09-21T09:24:37;17.70;99.90
30186;DHT22;31152;49.190;8.122;2022-09-21T09:32:18;18.30;99.90
30186;DHT22;31152;49.190;8.122;2022-09-21T09:38:04;18.70;99.90
30186;DHT22;31152;49.190;8.122;2022-09-21T09:40:54;19.00;99.70
30186;DHT22;31152;49.190;8.122;2022-09-21T09:49:17;19.40;97.60
30186;DHT22;31152;49.190;8.122;2022-09-21T09:51:45;19.50;97.80
30186;DHT22;31152;49.190;8.122;2022-09-21T09:54:15;19.60;97.50
30186;DHT22;31152;49.190;8.122;2022-09-21T09:56:43;19.80;97.00
30186;DHT22;31152;49.190;8.122;2022-09-21T09:59:35;19.90;96.50
30186;DHT22;31152;49.190;8.122;2022-09-21T10:02:23;20.10;96.60
30186;DHT22;31152;49.190;8.122;2022-09-21T10:05:01;20.30;95.10
30186;DHT22;31152;49.190;8.122;2022-09-21T10:13:00;21.10;94.20
30186;DHT22;31152;49.190;8.122;2022-09-21T10:15:28;21.20;92.40
30186;DHT22;31152;49.190;8.122;2022-09-21T10:18:11;21.20;92.20
30186;DHT22;31152;49.190;8.122;2022-09-21T10:20:58;21.40;91.80
30186;DHT22;31152;49.190;8.122;2022-09-21T10:23:28;21.70;91.20
30186;DHT22;31152;49.190;8.122;2022-09-21T10:25:58;21.50;89.80
30186;DHT22;31152;49.190;8.122;2022-09-21T10:28:27;21.30;91.50
30186;DHT22;31152;49.190;8.122;2022-09-21T10:31:18;21.20;91.70
30186;DHT22;31152;49.190;8.122;2022-09-21T10:33:51;21.10;91.10
30186;DHT22;31152;49.190;8.122;2022-09-21T10:36:31;21.40;91.40
30186;DHT22;31152;49.190;8.122;2022-09-21T10:39:19;21.30;91.70
30186;DHT22;31152;49.190;8.122;2022-09-21T10:41:51;21.80;90.30
30186;DHT22;31152;49.190;8.122;2022-09-21T10:44:20;22.20;90.10
30186;DHT22;31152;49.190;8.122;2022-09-21T10:46:48;22.60;88.50
30186;DHT22;31152;49.190;8.122;2022-09-21T10:49:24;22.70;87.30
30186;DHT22;31152;49.190;8.122;2022-09-21T10:51:55;22.90;85.80
30186;DHT22;31152;49.190;8.122;2022-09-21T10:54:27;23.00;83.70
30186;DHT22;31152;49.190;8.122;2022-09-21T10:57:02;23.20;82.80
30186;DHT22;31152;49.190;8.122;2022-09-21T10:59:35;23.20;83.10
30186;DHT22;31152;49.190;8.122;2022-09-21T11:02:24;23.00;82.00
30186;DHT22;31152;49.190;8.122;2022-09-21T11:05:04;23.20;82.90
30186;DHT22;31152;49.190;8.122;2022-09-21T11:07:52;23.50;81.00
30186;DHT22;31152;49.190;8.122;2022-09-21T11:10:37;23.60;77.80
30186;DHT22;31152;49.190;8.122;2022-09-21T11:16:13;23.80;74.60
30186;DHT22;31152;49.190;8.122;2022-09-21T11:19:26;23.90;75.80
30186;DHT22;31152;49.190;8.122;2022-09-21T11:24:56;24.40;71.90
30186;DHT22;31152;49.190;8.122;2022-09-21T11:27:39;24.60;70.80
30186;DHT22;31152;49.190;8.122;2022-09-21T11:36:15;24.60;70.20
30186;DHT22;31152;49.190;8.122;2022-09-21T11:38:59;24.70;71.70
30186;DHT22;31152;49.190;8.122;2022-09-21T11:41:53;25.00;68.60
30186;DHT22;31152;49.190;8.122;2022-09-21T11:58:53;25.50;64.80
30186;DHT22;31152;49.190;8.122;2022-09-21T12:01:55;25.40;64.60
30186;DHT22;31152;49.190;8.122;2022-09-21T12:04:55;25.60;61.40
30186;DHT22;31152;49.190;8.122;2022-09-21T12:07:34;25.70;60.40
30186;DHT22;31152;49.190;8.122;2022-09-21T12:10:13;25.90;59.00
30186;DHT22;31152;49.190;8.122;2022-09-21T12:13:05;25.90;58.60
30186;DHT22;31152;49.190;8.122;2022-09-21T12:21:29;26.20;58.20
30186;DHT22;31152;49.190;8.122;2022-09-21T12:24:02;26.20;58.00
30186;DHT22;31152;49.190;8.122;2022-09-21T12:26:51;26.30;57.30
30186;DHT22;31152;49.190;8.122;2022-09-21T12:35:01;26.60;55.40
30186;DHT22;31152;49.190;8.122;2022-09-21T12:46:23;26.60;54.70
30186;DHT22;31152;49.190;8.122;2022-09-21T12:48:51;26.60;54.80
30186;DHT22;31152;49.190;8.122;2022-09-21T12:51:26;26.70;54.70
30186;DHT22;31152;49.190;8.122;2022-09-21T12:53:58;26.80;55.70
30186;DHT22;31152;49.190;8.122;2022-09-21T12:56:49;26.80;53.90
30186;DHT22;31152;49.190;8.122;2022-09-21T13:02:45;26.50;53.40
30186;DHT22;31152;49.190;8.122;2022-09-21T13:05:33;26.50;52.80
30186;DHT22;31152;49.190;8.122;2022-09-21T13:08:17;26.60;54.40
30186;DHT22;31152;49.190;8.122;2022-09-21T13:11:01;26.80;52.80
30186;DHT22;31152;49.190;8.122;2022-09-21T13:13:49;26.90;51.60
30186;DHT22;31152;49.190;8.122;2022-09-21T13:16:25;27.00;52.10
30186;DHT22;31152;49.190;8.122;2022-09-21T13:19:00;27.00;51.50
30186;DHT22;31152;49.190;8.122;2022-09-21T13:21:34;27.10;52.10
30186;DHT22;31152;49.190;8.122;2022-09-21T13:26:56;27.10;51.10
30186;DHT22;31152;49.190;8.122;2022-09-21T13:29:30;26.40;52.40
30186;DHT22;31152;49.190;8.122;2022-09-21T13:32:19;26.00;53.40
30186;DHT22;31152;49.190;8.122;2022-09-21T13:34:46;25.80;53.60
30186;DHT22;31152;49.190;8.122;2022-09-21T13:47:52;25.10;53.90
30186;DHT22;31152;49.190;8.122;2022-09-21T13:52:56;25.30;52.90
30186;DHT22;31152;49.190;8.122;2022-09-21T13:55:29;25.50;52.10
30186;DHT22;31152;49.190;8.122;2022-09-21T13:58:43;25.70;52.10
30186;DHT22;31152;49.190;8.122;2022-09-21T14:00:58;25.90;51.30
30186;DHT22;31152;49.190;8.122;2022-09-21T14:03:35;26.10;52.00
30186;DHT22;31152;49.190;8.122;2022-09-21T14:06:09;26.10;52.60
30186;DHT22;31152;49.190;8.122;2022-09-21T14:11:35;26.00;52.70
30186;DHT22;31152;49.190;8.122;2022-09-21T14:14:22;26.00;53.50
30186;DHT22;31152;49.190;8.122;2022-09-21T14:16:51;26.10;53.20
30186;DHT22;31152;49.190;8.122;2022-09-21T14:24:38;25.50;53.10
30186;DHT22;31152;49.190;8.122;2022-09-21T14:27:33;25.30;53.60
30186;DHT22;31152;49.190;8.122;2022-09-21T14:30:22;25.00;54.70
30186;DHT22;31152;49.190;8.122;2022-09-21T14:35:37;24.80;53.80
30186;DHT22;31152;49.190;8.122;2022-09-21T14:38:58;24.70;53.60
30186;DHT22;31152;49.190;8.122;2022-09-21T14:41:22;24.60;53.30
30186;DHT22;31152;49.190;8.122;2022-09-21T14:43:53;24.50;53.00
30186;DHT22;31152;49.190;8.122;2022-09-21T14:46:53;24.50;52.40
30186;DHT22;31152;49.190;8.122;2022-09-21T14:49:52;24.50;54.10
30186;DHT22;31152;49.190;8.122;2022-09-21T14:52:31;24.40;52.70
30186;DHT22;31152;49.190;8.122;2022-09-21T15:00:46;24.40;52.80
30186;DHT22;31152;49.190;8.122;2022-09-21T15:03:28;24.40;51.80
30186;DHT22;31152;49.190;8.122;2022-09-21T15:06:17;24.30;52.20
30186;DHT22;31152;49.190;8.122;2022-09-21T15:12:50;24.40;53.10
30186;DHT22;31152;49.190;8.122;2022-09-21T15:15:41;24.60;52.90
30186;DHT22;31152;49.190;8.122;2022-09-21T15:18:21;24.90;53.00
30186;DHT22;31152;49.190;8.122;2022-09-21T15:20:59;25.20;51.40
30186;DHT22;31152;49.190;8.122;2022-09-21T15:23:36;25.80;51.40
30186;DHT22;31152;49.190;8.122;2022-09-21T15:26:25;26.70;51.50
30186;DHT22;31152;49.190;8.122;2022-09-21T15:28:57;27.50;49.80
30186;DHT22;31152;49.190;8.122;2022-09-21T15:31:38;28.10;48.80
30186;DHT22;31152;49.190;8.122;2022-09-21T15:34:08;27.70;48.30
30186;DHT22;31152;49.190;8.122;2022-09-21T15:36:38;26.90;49.20
30186;DHT22;31152;49.190;8.122;2022-09-21T15:39:15;26.80;49.80
30186;DHT22;31152;49.190;8.122;2022-09-21T15:41:46;27.40;49.60
30186;DHT22;31152;49.190;8.122;2022-09-21T15:44:17;28.50;48.20
30186;DHT22;31152;49.190;8.122;2022-09-21T15:46:50;29.90;46.70
30186;DHT22;31152;49.190;8.122;2022-09-21T15:49:18;31.60;45.00
30186;DHT22;31152;49.190;8.122;2022-09-21T15:51:58;33.30;42.60
30186;DHT22;31152;49.190;8.122;2022-09-21T15:57:02;34.90;39.40
30186;DHT22;31152;49.190;8.122;2022-09-21T15:59:36;34.70;38.70
30186;DHT22;31152;49.190;8.122;2022-09-21T16:02:11;34.30;37.90
30186;DHT22;31152;49.190;8.122;2022-09-21T16:04:45;34.30;36.50
30186;DHT22;31152;49.190;8.122;2022-09-21T16:07:33;34.00;35.30
30186;DHT22;31152;49.190;8.122;2022-09-21T16:10:01;33.90;35.40
30186;DHT22;31152;49.190;8.122;2022-09-21T16:12:42;33.80;34.90
30186;DHT22;31152;49.190;8.122;2022-09-21T16:15:37;33.90;34.40
30186;DHT22;31152;49.190;8.122;2022-09-21T16:18:04;34.10;34.90
30186;DHT22;31152;49.190;8.122;2022-09-21T16:20:46;34.10;34.20
30186;DHT22;31152;49.190;8.122;2022-09-21T16:23:20;34.20;34.10
30186;DHT22;31152;49.190;8.122;2022-09-21T16:25:58;34.10;33.80
30186;DHT22;31152;49.190;8.122;2022-09-21T16:28:37;33.90;34.00
30186;DHT22;31152;49.190;8.122;2022-09-21T16:31:27;33.70;34.10
30186;DHT22;31152;49.190;8.122;2022-09-21T16:34:01;33.50;34.30
30186;DHT22;31152;49.190;8.122;2022-09-21T16:36:33;33.50;34.00
30186;DHT22;31152;49.190;8.122;2022-09-21T16:39:08;33.30;34.20
30186;DHT22;31152;49.190;8.122;2022-09-21T16:44:22;32.60;34.90
30186;DHT22;31152;49.190;8.122;2022-09-21T16:46:57;32.20;35.30
30186;DHT22;31152;49.190;8.122;2022-09-21T16:49:30;31.90;36.00
30186;DHT22;31152;49.190;8.122;2022-09-21T16:51:59;31.30;36.40
30186;DHT22;31152;49.190;8.122;2022-09-21T16:54:27;30.70;37.20
30186;DHT22;31152;49.190;8.122;2022-09-21T16:56:57;30.00;38.20
30186;DHT22;31152;49.190;8.122;2022-09-21T16:59:24;29.20;39.10
30186;DHT22;31152;49.190;8.122;2022-09-21T17:01:53;28.30;40.30
30186;DHT22;31152;49.190;8.122;2022-09-21T17:04:24;27.20;41.50
30186;DHT22;31152;49.190;8.122;2022-09-21T17:06:52;25.90;43.20
30186;DHT22;31152;49.190;8.122;2022-09-21T17:09:33;24.80;45.40
30186;DHT22;31152;49.190;8.122;2022-09-21T17:12:02;23.70;46.90
30186;DHT22;31152;49.190;8.122;2022-09-21T17:14:33;22.90;48.70
30186;DHT22;31152;49.190;8.122;2022-09-21T17:17:11;22.10;50.00
30186;DHT22;31152;49.190;8.122;2022-09-21T17:19:38;21.50;51.20
30186;DHT22;31152;49.190;8.122;2022-09-21T17:22:12;21.00;52.10
30186;DHT22;31152;49.190;8.122;2022-09-21T17:24:51;20.60;53.70
30186;DHT22;31152;49.190;8.122;2022-09-21T17:27:22;20.20;54.40
30186;DHT22;31152;49.190;8.122;2022-09-21T17:29:49;19.90;55.40
30186;DHT22;31152;49.190;8.122;2022-09-21T17:32:22;19.60;55.90
30186;DHT22;31152;49.190;8.122;2022-09-21T17:37:42;19.10;57.50
30186;DHT22;31152;49.190;8.122;2022-09-21T17:40:10;18.90;58.30
30186;DHT22;31152;49.190;8.122;2022-09-21T17:42:39;18.70;58.80
30186;DHT22;31152;49.190;8.122;2022-09-21T17:45:34;18.50;59.30
30186;DHT22;31152;49.190;8.122;2022-09-21T17:48:06;18.40;59.90
30186;DHT22;31152;49.190;8.122;2022-09-21T17:50:40;18.20;61.10
30186;DHT22;31152;49.190;8.122;2022-09-21T17:53:17;18.00;61.80
30186;DHT22;31152;49.190;8.122;2022-09-21T17:59:00;17.70;65.00
30186;DHT22;31152;49.190;8.122;2022-09-21T18:01:37;17.50;67.00
30186;DHT22;31152;49.190;8.122;2022-09-21T18:04:09;17.40;67.20
30186;DHT22;31152;49.190;8.122;2022-09-21T18:06:36;17.20;67.20
30186;DHT22;31152;49.190;8.122;2022-09-21T18:09:03;17.10;69.80
30186;DHT22;31152;49.190;8.122;2022-09-21T18:14:39;16.80;73.00
30186;DHT22;31152;49.190;8.122;2022-09-21T18:26:01;16.20;75.60
30186;DHT22;31152;49.190;8.122;2022-09-21T18:28:44;16.00;75.40
30186;DHT22;31152;49.190;8.122;2022-09-21T18:37:19;15.80;77.40
30186;DHT22;31152;49.190;8.122;2022-09-21T18:42:48;15.50;78.60
30186;DHT22;31152;49.190;8.122;2022-09-21T18:46:02;15.40;81.80
30186;DHT22;31152;49.190;8.122;2022-09-21T18:51:09;15.10;84.70
30186;DHT22;31152;49.190;8.122;2022-09-21T18:53:52;14.90;85.80
30186;DHT22;31152;49.190;8.122;2022-09-21T18:56:23;14.80;88.00
30186;DHT22;31152;49.190;8.122;2022-09-21T18:58:50;14.60;90.30
30186;DHT22;31152;49.190;8.122;2022-09-21T19:01:18;14.40;91.40
30186;DHT22;31152;49.190;8.122;2022-09-21T19:03:49;14.20;92.30
30186;DHT22;31152;49.190;8.122;2022-09-21T19:06:30;14.10;92.60
30186;DHT22;31152;49.190;8.122;2022-09-21T19:14:50;13.70;94.60
30186;DHT22;31152;49.190;8.122;2022-09-21T19:25:36;13.50;97.00
30186;DHT22;31152;49.190;8.122;2022-09-21T19:31:01;13.30;97.90
30186;DHT22;31152;49.190;8.122;2022-09-21T19:33:30;13.20;98.30
30186;DHT22;31152;49.190;8.122;2022-09-21T19:36:15;13.20;98.60
30186;DHT22;31152;49.190;8.122;2022-09-21T19:38:42;13.10;98.90
30186;DHT22;31152;49.190;8.122;2022-09-21T19:41:37;13.00;99.30
30186;DHT22;31152;49.190;8.122;2022-09-21T19:47:04;12.90;99.90
30186;DHT22;31152;49.190;8.122;2022-09-21T19:49:49;12.90;99.90
30186;DHT22;31152;49.190;8.122;2022-09-21T19:52:27;12.80;99.90
30186;DHT22;31152;49.190;8.122;2022-09-21T19:54:58;12.70;99.90